Time;durP1;ratioP1;P1;durP2;ratioP2;P2;SDS_P1;SDS_P2;PMS_P1;PMS_P2;Temp;Humidity;BMP_temperature;BMP_pressure;BME280_temperature;BME280_humidity;BME280_pressure;Samples;Min_cycle;Max_cycle;Signal;HPM_P1;HPM_P2
2023/01/01 00:01:56;;;;;;;16.52;12.55;;;;;;;12.25;96.81;99589.88;5051082;28;20029;-78
2023/01/01 00:04:21;;;;;;;14.95;11.63;;;;;;;12.25;96.65;99584.66;5051672;28;20507;-78
2023/01/01 00:06:47;;;;;;;15.85;12.32;;;;;;;12.27;96.33;99590.66;5052417;28;20368;-78
2023/01/01 00:11:56;;;;;;;12.77;8.75;;;;;;;12.21;96.28;99577.94;5052053;28;20097;-78
2023/01/01 00:14:21;;;;;;;11.75;8.10;;;;;;;12.27;96.10;99595.88;5051953;28;20375;-78
2023/01/01 00:16:47;;;;;;;12.60;9.82;;;;;;;12.21;96.09;99590.97;5052045;28;20500;-78
2023/01/01 00:19:12;;;;;;;15.55;12.13;;;;;;;12.21;96.00;99578.75;5051874;28;20017;-78
2023/01/01 00:21:38;;;;;;;14.15;10.00;;;;;;;12.30;95.32;99582.63;5052184;28;20174;-78
2023/01/01 00:24:05;;;;;;;12.35;7.88;;;;;;;12.32;95.19;99587.81;5052157;28;20017;-78
2023/01/01 00:26:31;;;;;;;8.48;7.03;;;;;;;12.32;95.22;99585.19;5051850;28;20489;-78
2023/01/01 00:28:56;;;;;;;10.15;7.88;;;;;;;12.30;95.03;99590.47;5052016;28;20100;-78
2023/01/01 00:31:21;;;;;;;9.63;6.93;;;;;;;12.28;95.34;99587.13;5051727;28;20376;-78
2023/01/01 00:33:52;;;;;;;11.15;7.80;;;;;;;12.23;95.14;99579.53;5051842;28;20380;-78
2023/01/01 00:36:19;;;;;;;12.20;9.40;;;;;;;12.28;95.22;99594.13;5051692;28;20025;-78
2023/01/01 00:38:45;;;;;;;10.57;7.78;;;;;;;12.27;95.10;99592.44;5051857;28;20049;-78
2023/01/01 00:41:12;;;;;;;14.18;9.52;;;;;;;12.26;95.02;99601.16;5051824;28;20045;-78
2023/01/01 00:43:38;;;;;;;12.20;8.30;;;;;;;12.19;95.05;99590.25;5051800;28;20032;-78
2023/01/01 00:46:04;;;;;;;13.00;8.77;;;;;;;12.22;95.13;99606.59;5053275;28;20017;-78
2023/01/01 00:48:30;;;;;;;10.32;7.95;;;;;;;12.15;94.84;99597.38;5056083;28;20060;-78
2023/01/01 00:50:55;;;;;;;12.20;8.93;;;;;;;12.17;95.14;99612.97;5055675;28;20113;-77
2023/01/01 00:53:21;;;;;;;14.00;10.20;;;;;;;12.11;95.25;99608.91;5055800;28;20113;-77
2023/01/01 00:55:48;;;;;;;16.05;11.93;;;;;;;12.10;95.20;99612.47;5055783;28;20017;-77
2023/01/01 00:58:14;;;;;;;13.80;10.63;;;;;;;12.09;95.22;99609.91;5055467;28;20052;-77
2023/01/01 01:00:39;;;;;;;14.07;10.27;;;;;;;12.09;94.99;99615.97;5055566;28;20110;-77
2023/01/01 01:03:05;;;;;;;17.13;10.43;;;;;;;12.03;95.05;99613.72;5056064;28;20029;-77
2023/01/01 01:05:31;;;;;;;12.07;9.30;;;;;;;12.06;95.29;99613.56;5055560;28;20020;-77
2023/01/01 01:07:57;;;;;;;16.90;11.52;;;;;;;12.02;95.06;99609.41;5055740;28;20032;-77
2023/01/01 01:10:24;;;;;;;14.07;10.50;;;;;;;12.10;94.88;99624.69;5055364;28;20396;-77
2023/01/01 01:12:50;;;;;;;11.05;8.48;;;;;;;12.07;94.96;99614.38;5055487;28;20360;-77
2023/01/01 01:15:15;;;;;;;14.65;10.93;;;;;;;12.14;94.67;99618.38;5055128;28;20108;-77
2023/01/01 01:17:41;;;;;;;10.57;7.75;;;;;;;12.12;94.34;99615.81;5055308;28;20031;-77
2023/01/01 01:20:07;;;;;;;11.63;8.15;;;;;;;12.17;93.88;99619.03;5055525;28;20021;-77
2023/01/01 01:22:33;;;;;;;11.00;7.60;;;;;;;12.23;93.93;99618.72;5055068;28;20032;-77
2023/01/01 01:24:59;;;;;;;9.77;7.13;;;;;;;12.23;93.92;99628.31;5055360;28;20036;-77
2023/01/01 01:27:25;;;;;;;11.23;8.32;;;;;;;12.27;94.02;99629.00;5055016;28;20024;-77
2023/01/01 01:29:50;;;;;;;11.27;7.13;;;;;;;12.32;93.47;99629.59;5055094;28;20021;-77
2023/01/01 01:32:16;;;;;;;7.63;6.03;;;;;;;12.33;93.36;99626.88;5054992;28;20021;-77
2023/01/01 01:34:41;;;;;;;7.88;5.75;;;;;;;12.30;92.82;99621.81;5055330;28;20408;-77
2023/01/01 01:37:06;;;;;;;14.95;10.60;;;;;;;12.32;92.92;99611.31;5055182;28;20067;-77
2023/01/01 01:39:32;;;;;;;16.02;12.40;;;;;;;12.31;93.25;99620.91;5054962;28;20040;-77
2023/01/01 01:41:57;;;;;;;15.15;11.13;;;;;;;12.30;93.30;99615.75;5054865;28;20025;-77
2023/01/01 01:44:47;;;;;;;9.80;7.50;;;;;;;12.37;93.22;99628.41;5054517;28;20021;-77
2023/01/01 01:47:25;;;;;;;15.45;10.43;;;;;;;12.37;93.13;99628.41;5055083;28;20025;-77
2023/01/01 01:50:14;;;;;;;25.80;15.77;;;;;;;12.29;93.12;99625.34;5055079;28;20032;-77
2023/01/01 01:52:57;;;;;;;23.75;15.75;;;;;;;12.30;93.31;99629.66;5054786;28;20029;-77
2023/01/01 01:55:23;;;;;;;16.20;10.75;;;;;;;12.35;93.15;99640.72;5054709;28;20025;-77
2023/01/01 01:57:49;;;;;;;26.30;16.40;;;;;;;12.35;92.80;99640.72;5053812;28;20025;-77
2023/01/01 02:00:15;;;;;;;16.30;11.00;;;;;;;12.29;92.80;99635.81;5054654;28;20028;-77
2023/01/01 02:03:04;;;;;;;22.58;13.13;;;;;;;12.29;93.14;99637.56;5054642;28;20109;-77
2023/01/01 02:05:30;;;;;;;36.88;22.13;;;;;;;12.29;92.94;99648.88;5054247;28;20345;-77
2023/01/01 02:07:58;;;;;;;37.42;21.00;;;;;;;12.26;93.03;99638.56;5054665;28;20025;-77
2023/01/01 02:10:23;;;;;;;24.17;13.55;;;;;;;12.32;93.00;99650.47;5054225;28;20086;-77
2023/01/01 02:12:49;;;;;;;26.90;17.42;;;;;;;12.30;93.22;99653.16;5054396;28;20644;-77
2023/01/01 02:15:14;;;;;;;15.70;10.75;;;;;;;12.28;93.00;99652.41;5054407;28;20100;-77
2023/01/01 02:17:52;;;;;;;14.32;11.55;;;;;;;12.24;93.31;99651.72;5054059;28;20095;-77
2023/01/01 02:20:23;;;;;;;10.60;8.73;;;;;;;12.25;93.37;99652.56;5054230;28;20040;-77
2023/01/01 02:23:07;;;;;;;11.75;7.05;;;;;;;12.20;93.42;99644.13;5054403;28;20441;-77
2023/01/01 02:25:38;;;;;;;7.18;5.95;;;;;;;12.27;93.11;99655.94;5053994;28;20057;-77
2023/01/01 02:28:17;;;;;;;8.82;6.68;;;;;;;12.21;93.27;99643.22;5054121;28;20067;-77
2023/01/01 02:30:46;;;;;;;7.70;6.25;;;;;;;12.18;93.47;99635.56;5054118;28;20029;-77
2023/01/01 02:33:17;;;;;;;9.30;6.60;;;;;;;12.23;93.65;99652.66;5054109;28;20384;-77
2023/01/01 02:35:49;;;;;;;7.20;5.40;;;;;;;12.19;93.25;99643.31;5054031;28;20108;-77
2023/01/01 02:38:18;;;;;;;7.63;5.63;;;;;;;12.26;93.17;99654.25;5053783;28;20017;-77
2023/01/01 02:40:47;;;;;;;6.38;4.88;;;;;;;12.20;93.03;99649.34;5053691;28;20484;-77
2023/01/01 02:43:12;;;;;;;6.15;4.65;;;;;;;12.29;92.90;99653.25;5053934;28;20021;-77
2023/01/01 02:45:38;;;;;;;6.80;4.93;;;;;;;12.33;92.74;99662.59;5053700;28;20511;-77
2023/01/01 02:48:38;;;;;;;6.25;4.85;;;;;;;12.35;92.59;99660.78;5053757;28;20024;-77
2023/01/01 02:51:13;;;;;;;6.45;5.00;;;;;;;12.35;92.39;99660.78;5053512;28;20021;-77
2023/01/01 02:53:50;;;;;;;5.63;4.50;;;;;;;12.36;91.92;99678.13;5053595;28;20043;-77
2023/01/01 02:56:31;;;;;;;5.22;4.18;;;;;;;12.39;91.95;99680.56;5053741;28;20074;-77
2023/01/01 03:02:00;;;;;;;6.53;4.60;;;;;;;12.41;91.51;99681.31;5053418;28;20106;-76
2023/01/01 03:04:59;;;;;;;6.45;4.45;;;;;;;12.43;91.30;99682.06;5053415;28;20112;-77
2023/01/01 03:07:30;;;;;;;5.63;3.88;;;;;;;12.43;91.07;99682.94;5053285;28;20021;-77
2023/01/01 03:10:04;;;;;;;6.90;5.15;;;;;;;12.36;91.24;99668.50;5053246;28;20456;-76
2023/01/01 03:12:42;;;;;;;6.68;4.72;;;;;;;12.38;91.54;99674.47;5053061;28;20025;-77
2023/01/01 03:15:22;;;;;;;6.72;4.72;;;;;;;12.40;91.53;99688.31;5053396;28;20111;-77
2023/01/01 03:18:01;;;;;;;5.43;4.03;;;;;;;12.32;91.55;99677.44;5053156;28;20017;-77
2023/01/01 03:20:32;;;;;;;5.50;4.13;;;;;;;12.39;91.44;99702.31;5052688;28;20029;-77
2023/01/01 03:23:02;;;;;;;6.10;4.20;;;;;;;12.36;91.57;99694.63;5053240;28;20078;-77
2023/01/01 03:25:32;;;;;;;;;;;;;;;12.35;91.54;99697.34;5053307;28;20029;-77
2023/01/01 03:28:02;;;;;;;6.25;4.13;;;;;;;12.31;91.57;99695.81;5052949;28;19908;-77
2023/01/01 03:30:29;;;;;;;5.72;4.05;;;;;;;12.30;91.52;99697.56;5052459;28;20017;-77
2023/01/01 03:32:59;;;;;;;6.30;4.05;;;;;;;12.22;91.51;99695.38;5052670;28;20385;-77
2023/01/01 03:35:30;;;;;;;5.88;4.05;;;;;;;12.28;91.52;99702.03;5052493;28;20031;-77
2023/01/01 03:37:59;;;;;;;4.78;3.50;;;;;;;12.23;91.72;99699.66;5052743;28;20086;-76
2023/01/01 03:40:26;;;;;;;4.38;3.45;;;;;;;12.17;91.49;99691.28;5052318;28;20094;-77
2023/01/01 03:42:58;;;;;;;4.60;3.60;;;;;;;12.20;91.69;99702.41;5052689;28;20024;-77
2023/01/01 03:45:28;;;;;;;6.22;3.75;;;;;;;12.13;91.77;99687.16;5052648;28;20024;-77
2023/01/01 03:47:55;;;;;;;4.30;3.80;;;;;;;12.13;91.80;99698.44;5052682;28;20094;-77
2023/01/01 03:50:27;;;;;;;4.82;3.65;;;;;;;12.03;91.86;99683.34;5052750;28;20305;-77
2023/01/01 03:53:12;;;;;;;4.88;3.22;;;;;;;12.04;91.96;99696.31;5052525;28;20426;-77
2023/01/01 03:56:07;;;;;;;6.13;4.20;;;;;;;11.92;92.23;99687.34;5052223;28;20037;-77
2023/01/01 03:58:44;;;;;;;4.75;3.70;;;;;;;11.91;92.04;99696.09;5052099;28;20467;-77
2023/01/01 04:01:17;;;;;;;6.35;3.95;;;;;;;11.87;92.38;99688.50;5052494;28;20017;-77
2023/01/01 04:03:42;;;;;;;5.32;4.10;;;;;;;11.87;92.23;99697.19;5052128;28;20056;-77
2023/01/01 04:06:10;;;;;;;8.25;3.83;;;;;;;11.79;92.24;99688.84;5052193;28;20503;-77
2023/01/01 04:08:36;;;;;;;8.75;3.92;;;;;;;11.80;92.72;99703.63;5052431;28;20086;-77
2023/01/01 04:12:00;;;;;;;4.43;3.58;;;;;;;11.73;92.48;99695.25;5052205;28;20021;-77
2023/01/01 04:13:53;;;;;;;6.55;3.88;;;;;;;11.72;92.54;99695.34;5052217;28;20422;-77
2023/01/01 04:16:18;;;;;;;6.50;4.07;;;;;;;11.66;92.43;99699.06;5052197;28;20016;-77
2023/01/01 04:18:44;;;;;;;5.30;3.90;;;;;;;11.76;92.16;99704.69;5051922;28;20056;-77
2023/01/01 04:21:11;;;;;;;3.97;3.35;;;;;;;11.78;92.17;99704.59;5051880;28;20025;-77
2023/01/01 04:23:36;;;;;;;6.13;4.57;;;;;;;11.77;92.18;99711.59;5051943;28;20033;-77
2023/01/01 04:26:01;;;;;;;7.10;4.75;;;;;;;11.72;91.83;99708.38;5052051;28;20086;-77
2023/01/01 04:28:27;;;;;;;5.78;4.18;;;;;;;11.78;91.67;99713.28;5051774;28;20104;-77
2023/01/01 04:30:52;;;;;;;10.07;4.95;;;;;;;11.82;91.52;99724.41;5051766;28;20013;-77
2023/01/01 04:33:17;;;;;;;6.07;4.35;;;;;;;11.82;91.29;99712.19;5052157;28;20024;-77
2023/01/01 04:35:42;;;;;;;8.38;4.78;;;;;;;11.78;91.03;99704.59;5052073;28;20029;-77
2023/01/01 04:38:12;;;;;;;5.00;3.83;;;;;;;11.77;91.20;99701.16;5051837;28;20036;-77
2023/01/01 04:40:37;;;;;;;5.78;4.30;;;;;;;11.75;90.91;99702.97;5051668;28;20434;-77
2023/01/01 04:43:02;;;;;;;5.82;4.15;;;;;;;11.74;91.04;99715.19;5051904;28;20107;-76
2023/01/01 04:45:28;;;;;;;5.18;4.40;;;;;;;11.79;91.01;99724.56;5051623;28;20100;-77
2023/01/01 04:47:53;;;;;;;4.97;4.45;;;;;;;11.83;90.78;99739.16;5051613;28;20025;-77
2023/01/01 04:50:18;;;;;;;8.52;4.75;;;;;;;11.80;90.98;99729.72;5051688;28;20021;-77
2023/01/01 04:52:44;;;;;;;5.78;4.28;;;;;;;11.73;90.90;99731.78;5050273;28;20021;-77
2023/01/01 04:55:09;;;;;;;6.05;4.40;;;;;;;11.74;90.52;99732.63;5051743;28;20017;-77
2023/01/01 04:57:34;;;;;;;8.68;4.90;;;;;;;11.80;90.27;99739.28;5051467;28;20439;-77
2023/01/01 05:00:00;;;;;;;7.10;4.82;;;;;;;11.77;90.31;99735.06;5051686;28;20020;-77
2023/01/01 05:02:25;;;;;;;6.55;4.80;;;;;;;11.77;90.33;99737.69;5051849;28;20028;-77
2023/01/01 05:04:50;;;;;;;5.78;4.57;;;;;;;11.78;90.08;99743.75;5051572;28;20025;-77
2023/01/01 05:07:16;;;;;;;6.63;4.78;;;;;;;11.78;90.15;99749.81;5051699;28;20508;-77
2023/01/01 05:09:41;;;;;;;7.30;5.22;;;;;;;11.71;89.76;99735.38;5051420;28;20369;-77
2023/01/01 05:12:06;;;;;;;6.45;4.68;;;;;;;11.69;89.75;99747.66;5050198;28;20033;-77
2023/01/01 05:14:32;;;;;;;7.05;4.90;;;;;;;11.69;89.69;99747.66;5051355;28;20017;-77
2023/01/01 05:16:57;;;;;;;7.35;4.75;;;;;;;11.70;89.78;99762.38;5051296;28;20040;-77
2023/01/01 05:19:23;;;;;;;6.40;5.13;;;;;;;11.70;89.31;99752.78;5051359;28;20024;-77
2023/01/01 05:21:48;;;;;;;7.80;4.80;;;;;;;11.69;89.49;99756.31;5051341;28;20028;-77
2023/01/01 05:24:14;;;;;;;6.57;4.82;;;;;;;11.71;89.29;99766.69;5051545;28;20025;-77
2023/01/01 05:26:42;;;;;;;7.18;4.88;;;;;;;11.63;89.32;99755.78;5051247;28;20025;-77
2023/01/01 05:29:07;;;;;;;6.82;4.13;;;;;;;11.69;89.87;99773.75;5051368;28;20025;-77
2023/01/01 05:31:34;;;;;;;5.70;4.50;;;;;;;11.67;89.64;99766.00;5051309;28;20028;-77
2023/01/01 05:34:01;;;;;;;5.53;4.40;;;;;;;11.66;89.82;99766.91;5055176;28;20099;-77
2023/01/01 05:36:29;;;;;;;6.15;4.55;;;;;;;11.62;90.06;99765.38;5055330;28;20049;-77
2023/01/01 05:38:55;;;;;;;6.88;4.45;;;;;;;11.64;89.25;99768.75;5055070;28;20475;-77
2023/01/01 05:41:22;;;;;;;7.18;4.43;;;;;;;11.64;89.36;99757.47;5055146;28;20021;-77
2023/01/01 05:43:47;;;;;;;6.03;4.38;;;;;;;11.61;89.45;99760.25;5054760;28;20027;-77
2023/01/01 05:46:15;;;;;;;7.40;4.70;;;;;;;11.66;89.30;99766.06;5054788;28;20452;-77
2023/01/01 05:48:41;;;;;;;5.97;4.38;;;;;;;11.61;89.41;99766.28;5054709;28;20025;-77
2023/01/01 05:51:13;;;;;;;4.90;3.60;;;;;;;11.56;89.53;99770.06;5035866;28;20095;-77
2023/01/01 05:53:39;;;;;;;5.25;4.05;;;;;;;11.61;89.44;99787.16;5054485;28;20398;-77
2023/01/01 05:56:05;;;;;;;6.32;4.43;;;;;;;11.60;89.35;99782.03;5054780;28;20104;-77
2023/01/01 05:58:32;;;;;;;5.90;4.18;;;;;;;11.58;89.51;99782.09;5054564;28;20021;-77
2023/01/01 06:01:12;;;;;;;6.03;4.43;;;;;;;11.57;89.34;99782.19;5054604;28;20078;-77
2023/01/01 06:03:38;;;;;;;7.28;4.60;;;;;;;11.51;89.11;99774.66;5054582;28;20021;-77
2023/01/01 06:06:09;;;;;;;6.97;4.47;;;;;;;11.47;89.46;99774.81;5054588;28;20027;-77
2023/01/01 06:08:34;;;;;;;7.45;4.10;;;;;;;11.51;89.59;99788.53;5054278;28;20021;-77
2023/01/01 06:11:01;;;;;;;6.63;4.35;;;;;;;11.51;89.63;99792.91;5054235;28;20031;-77
2023/01/01 06:13:27;;;;;;;7.95;4.80;;;;;;;11.49;89.25;99779.94;5054563;28;20021;-77
2023/01/01 06:15:54;;;;;;;7.28;4.40;;;;;;;11.56;89.18;99780.50;5054573;28;20074;-77
2023/01/01 06:18:20;;;;;;;7.22;4.55;;;;;;;11.51;89.18;99767.69;5054242;28;20407;-77
2023/01/01 06:20:45;;;;;;;6.45;5.00;;;;;;;11.49;89.47;99778.16;5054133;28;20025;-77
2023/01/01 06:23:10;;;;;;;7.50;4.80;;;;;;;11.52;89.06;99774.56;5054215;28;20100;-77
2023/01/01 06:25:35;;;;;;;8.95;4.55;;;;;;;11.51;89.10;99774.66;5054107;28;20051;-77
2023/01/01 06:28:01;;;;;;;7.45;5.20;;;;;;;11.49;89.50;99770.34;5054065;28;20021;-77
2023/01/01 06:30:26;;;;;;;7.80;4.60;;;;;;;11.49;89.26;99765.13;5054264;28;20024;-77
2023/01/01 06:32:52;;;;;;;6.22;4.93;;;;;;;11.57;89.10;99777.78;5053861;28;20061;-77
2023/01/01 06:35:17;;;;;;;7.95;4.60;;;;;;;11.53;89.09;99771.03;5054144;28;20017;-77
2023/01/01 06:37:42;;;;;;;9.05;4.57;;;;;;;11.56;89.17;99770.91;5053761;28;20021;-77
2023/01/01 06:40:08;;;;;;;7.90;5.05;;;;;;;11.59;89.17;99775.13;5053633;28;20041;-77
2023/01/01 06:42:33;;;;;;;8.23;4.95;;;;;;;11.55;88.92;99763.16;5053133;28;20039;-77
2023/01/01 06:44:59;;;;;;;7.35;5.25;;;;;;;11.55;88.87;99776.19;5053877;28;20518;-77
2023/01/01 06:47:24;;;;;;;5.75;4.65;;;;;;;11.58;88.90;99776.03;5053885;28;20360;-77
2023/01/01 06:49:49;;;;;;;5.90;4.68;;;;;;;11.56;88.99;99783.94;5053534;28;20017;-77
2023/01/01 06:52:15;;;;;;;8.05;5.07;;;;;;;11.49;89.05;99777.31;5053715;28;20063;-77
2023/01/01 06:54:40;;;;;;;6.03;4.60;;;;;;;11.53;88.97;99791.91;5053254;28;20028;-77
2023/01/01 06:57:05;;;;;;;5.97;4.30;;;;;;;11.54;89.03;99797.97;5053843;28;20025;-77
2023/01/01 06:59:31;;;;;;;6.18;4.30;;;;;;;11.56;88.96;99803.97;5053598;28;20078;-77
2023/01/01 07:01:56;;;;;;;7.50;5.20;;;;;;;11.55;88.86;99802.28;5053705;28;20090;-77
2023/01/01 07:04:21;;;;;;;7.95;4.68;;;;;;;11.49;89.07;99799.03;5053502;28;20521;-77
2023/01/01 07:06:46;;;;;;;5.28;4.32;;;;;;;11.43;89.02;99790.66;5053147;28;20075;-77
2023/01/01 07:09:12;;;;;;;6.28;4.57;;;;;;;11.56;89.02;99817.00;5053677;28;20582;-77
2023/01/01 07:11:37;;;;;;;8.65;4.90;;;;;;;11.52;88.94;99811.09;5052956;28;20107;-76
2023/01/01 07:14:03;;;;;;;7.05;4.40;;;;;;;11.59;88.75;99819.47;5053460;28;20452;-77
2023/01/01 07:16:28;;;;;;;6.80;4.75;;;;;;;11.59;88.63;99822.94;5053309;28;20093;-77
2023/01/01 07:18:53;;;;;;;7.68;4.90;;;;;;;11.60;88.59;99818.56;5052872;28;20032;-77
2023/01/01 07:21:26;;;;;;;6.75;4.43;;;;;;;11.64;88.51;99820.94;5053096;28;20025;-77
2023/01/01 07:23:52;;;;;;;6.05;4.30;;;;;;;11.63;88.45;99828.81;5052656;28;20044;-77
2023/01/01 07:26:17;;;;;;;6.60;4.97;;;;;;;11.65;88.26;99824.41;5053504;28;20448;-77
2023/01/01 07:28:42;;;;;;;6.60;4.95;;;;;;;11.61;88.28;99818.47;5051377;28;20110;-77
2023/01/01 07:31:09;;;;;;;8.23;4.75;;;;;;;11.65;88.22;99829.59;5053030;28;20047;-77
2023/01/01 07:33:34;;;;;;;9.02;4.95;;;;;;;11.69;88.31;99828.53;5052935;28;20029;-76
2023/01/01 07:35:59;;;;;;;8.57;5.35;;;;;;;11.72;88.30;99831.00;5052568;28;20021;-76
2023/01/01 07:38:25;;;;;;;6.90;4.50;;;;;;;11.73;87.32;99824.88;5052512;28;20025;-77
2023/01/01 07:40:50;;;;;;;6.90;4.60;;;;;;;11.87;87.08;99824.22;5052531;28;20483;-77
2023/01/01 07:43:15;;;;;;;7.78;5.07;;;;;;;11.98;87.07;99820.16;5052813;28;20025;-77
2023/01/01 07:45:41;;;;;;;18.33;11.05;;;;;;;12.23;86.48;99832.84;5052515;28;20083;-77
2023/01/01 07:48:12;;;;;;;23.80;14.82;;;;;;;12.39;86.01;99837.28;5052652;28;20075;-77
2023/01/01 07:50:37;;;;;;;12.95;8.65;;;;;;;12.62;85.66;99839.56;5052356;28;20025;-76
2023/01/01 07:53:02;;;;;;;7.85;5.97;;;;;;;12.76;84.81;99836.22;5052489;28;20028;-77
2023/01/01 07:55:28;;;;;;;7.82;5.80;;;;;;;13.01;84.16;99846.22;5051739;28;20048;-77
2023/01/01 07:57:53;;;;;;;7.45;4.47;;;;;;;13.15;82.74;99843.72;5052430;28;20017;-77
2023/01/01 08:00:20;;;;;;;7.10;4.80;;;;;;;13.35;82.39;99847.03;5052464;28;20122;-77
2023/01/01 08:02:46;;;;;;;6.10;4.55;;;;;;;13.44;81.91;99844.78;5052241;28;20035;-76
2023/01/01 08:05:11;;;;;;;7.38;5.57;;;;;;;13.63;81.60;99848.97;5052381;28;20032;-77
2023/01/01 08:07:37;;;;;;;7.72;5.50;;;;;;;13.81;80.85;99850.53;5052344;28;20048;-77
2023/01/01 08:10:04;;;;;;;7.43;4.18;;;;;;;13.94;80.43;99855.94;5052055;28;20443;-77
2023/01/01 08:12:30;;;;;;;7.57;5.07;;;;;;;14.01;79.97;99841.56;5052269;28;20017;-77
2023/01/01 08:14:55;;;;;;;12.63;7.25;;;;;;;14.18;79.31;99851.91;5051890;28;20522;-77
2023/01/01 08:17:20;;;;;;;13.63;7.88;;;;;;;14.23;78.00;99842.00;5052000;28;20021;-77
2023/01/01 08:19:48;;;;;;;19.60;11.55;;;;;;;14.44;78.04;99854.75;5052150;28;20086;-77
2023/01/01 08:22:13;;;;;;;23.17;11.75;;;;;;;14.53;78.15;99862.09;5052011;28;20421;-77
2023/01/01 08:24:39;;;;;;;15.95;8.05;;;;;;;14.56;77.89;99854.06;5052176;28;20072;-77
2023/01/01 08:27:04;;;;;;;21.98;10.15;;;;;;;14.65;77.31;99847.44;5051870;28;20013;-77
2023/01/01 08:29:29;;;;;;;13.13;7.50;;;;;;;14.74;76.66;99852.13;5051851;28;20052;-77
2023/01/01 08:31:55;;;;;;;20.02;9.50;;;;;;;14.76;76.75;99852.88;5051480;28;20020;-77
2023/01/01 08:34:20;;;;;;;17.80;7.90;;;;;;;14.76;76.12;99837.16;5051863;28;20025;-77
2023/01/01 08:36:45;;;;;;;21.17;9.38;;;;;;;14.80;76.01;99853.53;5051580;28;20021;-77
2023/01/01 08:39:11;;;;;;;14.65;7.63;;;;;;;14.75;75.72;99852.94;5051763;28;20049;-77
2023/01/01 08:41:36;;;;;;;23.08;9.93;;;;;;;14.80;76.07;99859.63;5051964;28;20726;-77
2023/01/01 08:44:01;;;;;;;10.20;6.20;;;;;;;14.78;76.03;99845.75;5051652;28;20025;-77
2023/01/01 08:46:27;;;;;;;15.48;7.38;;;;;;;14.81;75.76;99850.81;5051942;28;20373;-77
2023/01/01 08:48:52;;;;;;;15.38;6.60;;;;;;;14.83;75.57;99854.19;5051452;28;20102;-77
2023/01/01 08:51:17;;;;;;;34.17;14.07;;;;;;;14.80;75.80;99856.16;5051679;28;20013;-77
2023/01/01 08:53:43;;;;;;;22.50;9.55;;;;;;;14.81;75.92;99861.31;5051412;28;20029;-77
2023/01/01 08:56:10;;;;;;;20.58;9.10;;;;;;;14.84;76.13;99865.53;5051645;28;20411;-77
2023/01/01 08:58:38;;;;;;;19.25;8.98;;;;;;;14.85;75.59;99873.28;5051986;28;20033;-77
2023/01/01 09:01:04;;;;;;;19.77;10.27;;;;;;;14.85;75.87;99873.28;5051486;28;20039;-77
2023/01/01 09:03:29;;;;;;;16.63;8.68;;;;;;;14.85;76.11;99875.91;5051603;28;20024;-77
2023/01/01 09:05:55;;;;;;;11.32;5.82;;;;;;;14.92;75.91;99877.25;5052421;28;20115;-77
2023/01/01 09:08:21;;;;;;;8.18;5.78;;;;;;;14.95;75.60;99884.06;5055545;28;20376;-77
2023/01/01 09:10:47;;;;;;;7.03;4.90;;;;;;;14.92;75.53;99887.72;5055246;28;20031;-77
2023/01/01 09:13:16;;;;;;;8.65;4.78;;;;;;;14.91;75.17;99883.41;5055649;28;20473;-77
2023/01/01 09:15:42;;;;;;;12.30;5.95;;;;;;;14.81;75.21;99882.28;5055596;28;20060;-77
2023/01/01 09:18:08;;;;;;;10.10;6.05;;;;;;;14.84;75.66;99889.13;5055452;28;20419;-77
2023/01/01 09:20:33;;;;;;;9.63;5.18;;;;;;;14.87;75.37;99892.38;5055536;28;20108;-77
2023/01/01 09:22:59;;;;;;;6.78;4.85;;;;;;;14.85;75.23;99901.31;5055199;28;20107;-77
2023/01/01 09:25:24;;;;;;;9.48;4.82;;;;;;;14.85;75.27;99899.50;5055558;28;20024;-77
2023/01/01 09:27:56;;;;;;;7.10;4.78;;;;;;;14.78;74.94;99887.69;5055069;28;20480;-77
2023/01/01 09:30:21;;;;;;;7.78;5.05;;;;;;;14.83;75.34;99898.78;5055326;28;20017;-77
2023/01/01 09:32:47;;;;;;;9.57;5.43;;;;;;;14.83;75.42;99896.16;5055000;28;20024;-77
2023/01/01 09:35:12;;;;;;;9.68;5.45;;;;;;;14.82;75.26;99883.13;5054869;28;20013;-78
2023/01/01 09:37:37;;;;;;;7.63;5.05;;;;;;;14.79;75.63;99893.78;5055355;28;20025;-78
2023/01/01 09:40:03;;;;;;;8.35;4.50;;;;;;;14.80;75.44;99891.09;5054799;28;20037;-78
2023/01/01 09:42:39;;;;;;;7.57;5.13;;;;;;;14.79;75.61;99899.03;5054943;28;20021;-77
2023/01/01 09:45:26;;;;;;;10.55;5.45;;;;;;;14.72;75.85;99880.22;5054909;28;20480;-78
2023/01/01 09:47:59;;;;;;;14.57;5.90;;;;;;;14.70;76.03;99890.78;5054608;28;20036;-78
2023/01/01 09:50:32;;;;;;;9.55;5.70;;;;;;;14.73;75.94;99901.09;5055064;28;20364;-78
2023/01/01 09:53:08;;;;;;;13.38;7.38;;;;;;;14.76;76.05;99907.94;5054565;28;20024;-78
2023/01/01 09:55:52;;;;;;;13.75;7.50;;;;;;;14.78;76.53;99900.81;5054930;28;20063;-78
2023/01/01 09:58:23;;;;;;;9.15;6.07;;;;;;;14.85;76.50;99896.06;5054286;28;20020;-78
2023/01/01 10:00:52;;;;;;;8.82;6.18;;;;;;;14.95;76.53;99908.50;5054360;28;20029;-77
2023/01/01 10:03:34;;;;;;;14.13;8.50;;;;;;;15.04;76.44;99901.00;5054170;28;20028;-78
2023/01/01 10:06:22;;;;;;;13.35;7.40;;;;;;;15.11;76.53;99899.72;5053947;28;20480;-78
2023/01/01 10:09:11;;;;;;;11.57;6.78;;;;;;;15.13;76.20;99903.94;5053874;28;20120;-77
2023/01/01 10:11:59;;;;;;;9.48;6.30;;;;;;;15.16;76.22;99900.25;5054346;28;20033;-77
2023/01/01 10:14:36;;;;;;;12.88;7.28;;;;;;;15.13;76.36;99887.34;5054242;28;20112;-77
2023/01/01 10:17:25;;;;;;;10.75;6.03;;;;;;;15.12;75.85;99878.63;5053583;28;20108;-77
2023/01/01 10:20:00;;;;;;;8.98;5.80;;;;;;;15.20;75.90;99879.00;5050106;28;20044;-78
2023/01/01 10:22:34;;;;;;;10.20;6.28;;;;;;;15.22;76.01;99885.00;5053979;28;20033;-78
2023/01/01 10:25:07;;;;;;;13.15;6.10;;;;;;;15.26;75.75;99879.56;5053016;28;20465;-77
2023/01/01 10:27:37;;;;;;;10.43;6.43;;;;;;;15.23;75.94;99873.56;5053715;28;20536;-78
2023/01/01 10:30:13;;;;;;;8.73;6.13;;;;;;;15.26;75.86;99882.19;5053859;28;20439;-77
2023/01/01 10:32:39;;;;;;;6.85;4.95;;;;;;;15.23;75.66;99880.59;5053827;28;20101;-78
2023/01/01 10:35:12;;;;;;;6.35;4.95;;;;;;;15.22;76.05;99890.25;5053606;28;20021;-78
2023/01/01 10:37:38;;;;;;;8.70;5.72;;;;;;;15.30;75.71;99900.28;5052479;28;20029;-77
2023/01/01 10:40:17;;;;;;;10.40;5.97;;;;;;;15.28;75.80;99899.50;5041662;28;20084;-78
2023/01/01 10:42:46;;;;;;;8.10;5.70;;;;;;;15.32;75.78;99893.13;5042087;28;20072;-78
2023/01/01 10:45:17;;;;;;;7.95;5.20;;;;;;;15.36;75.33;99886.75;5041163;28;20025;-77
2023/01/01 10:48:18;;;;;;;7.72;5.18;;;;;;;15.37;75.08;99882.34;5033177;28;20021;-77
2023/01/01 10:51:00;;;;;;;7.97;5.25;;;;;;;15.29;75.49;99882.81;5039569;28;20481;-78
2023/01/01 10:53:37;;;;;;;8.00;5.07;;;;;;;15.32;75.23;99889.66;5053532;28;20072;-78
2023/01/01 10:56:07;;;;;;;8.27;5.32;;;;;;;15.37;75.01;99885.81;5052939;28;20029;-78
2023/01/01 10:58:53;;;;;;;7.90;5.15;;;;;;;15.34;75.06;99875.53;5053233;28;20372;-77
2023/01/01 11:01:21;;;;;;;10.25;5.90;;;;;;;15.38;74.79;99879.66;5053442;28;20020;-78
2023/01/01 11:03:53;;;;;;;7.80;5.82;;;;;;;15.50;74.59;99887.66;5052620;28;20025;-78
2023/01/01 11:06:42;;;;;;;6.82;5.05;;;;;;;15.56;73.96;99882.03;5053150;28;20032;-78
2023/01/01 11:09:21;;;;;;;6.10;5.07;;;;;;;15.64;73.13;99885.91;5053057;28;20025;-77
2023/01/01 11:11:53;;;;;;;6.72;5.10;;;;;;;15.71;73.04;99870.56;5053413;28;20455;-78
2023/01/01 11:14:26;;;;;;;6.70;4.75;;;;;;;15.77;72.76;99867.56;5053410;28;20021;-77
2023/01/01 11:16:52;;;;;;;7.07;5.05;;;;;;;15.84;72.95;99884.59;5053069;28;20025;-77
2023/01/01 11:19:31;;;;;;;8.13;5.18;;;;;;;15.82;72.92;99883.03;5053152;28;20017;-78
2023/01/01 11:21:57;;;;;;;6.68;5.13;;;;;;;15.83;73.01;99875.03;5053168;28;20058;-78
2023/01/01 11:24:25;;;;;;;7.65;5.28;;;;;;;15.81;72.95;99866.44;5053351;28;20460;-78
2023/01/01 11:26:52;;;;;;;8.52;5.50;;;;;;;15.83;73.43;99866.31;5052988;28;20056;-78
2023/01/01 11:29:28;;;;;;;9.63;6.70;;;;;;;15.80;73.40;99856.88;5052068;28;20074;-78
2023/01/01 11:31:55;;;;;;;32.90;26.63;;;;;;;15.86;73.03;99866.13;5052589;28;20056;-78
2023/01/01 11:34:28;;;;;;;22.42;19.52;;;;;;;15.81;73.29;99849.84;5053131;28;20036;-77
2023/01/01 11:37:25;;;;;;;23.60;19.77;;;;;;;15.90;73.38;99871.09;5052860;28;20028;-77
2023/01/01 11:39:53;;;;;;;17.27;15.27;;;;;;;15.86;73.24;99859.09;5052687;28;20047;-78
2023/01/01 11:42:30;;;;;;;20.75;18.65;;;;;;;15.86;73.51;99860.88;5052771;28;20021;-78
2023/01/01 11:44:59;;;;;;;9.88;8.93;;;;;;;15.88;73.62;99862.44;5052652;28;20380;-78